Time;durP1;ratioP1;P1;durP2;ratioP2;P2;SDS_P1;SDS_P2;PMS_P1;PMS_P2;Temp;Humidity;BMP_temperature;BMP_pressure;BME280_temperature;BME280_humidity;BME280_pressure;Samples;Min_cycle;Max_cycle;Signal;HPM_P1;HPM_P2
2022/12/10 00:01:17;;;;;;;80.73;30.73;;;;;;;;;;5054856;28;20200;-39
2022/12/10 00:03:45;;;;;;;75.73;30.13;;;;;;;;;;5054375;28;20188;-39
2022/12/10 00:06:15;;;;;;;73.47;29.80;;;;;;;;;;5054743;28;20231;-39
2022/12/10 00:08:42;;;;;;;75.50;28.93;;;;;;;;;;5054776;28;20199;-38
2022/12/10 00:11:11;;;;;;;75.80;29.87;;;;;;;;;;5055051;28;20200;-39
2022/12/10 00:13:38;;;;;;;68.67;27.30;;;;;;;;;;5054637;28;20725;-39
2022/12/10 00:16:07;;;;;;;65.87;25.90;;;;;;;;;;5054573;28;20539;-39
2022/12/10 00:18:35;;;;;;;65.53;27.00;;;;;;;;;;5054440;28;20218;-38
2022/12/10 00:21:04;;;;;;;62.23;25.90;;;;;;;;;;5054610;28;20545;-39
2022/12/10 00:23:32;;;;;;;74.43;30.93;;;;;;;;;;5055284;28;20196;-38
2022/12/10 00:26:09;;;;;;;61.07;27.30;;;;;;;;;;5060873;28;20669;-38
2022/12/10 00:28:37;;;;;;;68.53;27.10;;;;;;;;;;5074510;28;20214;-38
2022/12/10 00:31:09;;;;;;;61.27;27.40;;;;;;;;;;5073508;28;20630;-39
2022/12/10 00:33:37;;;;;;;57.87;23.37;;;;;;;;;;5073557;28;20199;-39
2022/12/10 00:36:07;;;;;;;60.63;23.87;;;;;;;;;;5073798;28;20218;-39
2022/12/10 00:38:34;;;;;;;57.07;25.03;;;;;;;;;;5074297;28;20195;-39
2022/12/10 00:41:03;;;;;;;65.13;24.80;;;;;;;;;;5073382;28;20641;-38
2022/12/10 00:43:30;;;;;;;64.43;25.13;;;;;;;;;;5074502;28;20207;-39
2022/12/10 00:45:57;;;;;;;58.87;23.87;;;;;;;;;;5077250;28;20207;-39
2022/12/10 00:48:24;;;;;;;56.57;23.33;;;;;;;;;;5077465;28;20250;-39
2022/12/10 00:50:57;;;;;;;59.77;24.17;;;;;;;;;;5077680;28;20199;-39
2022/12/10 00:53:25;;;;;;;53.23;22.00;;;;;;;;;;5077252;28;20630;-38
2022/12/10 00:55:53;;;;;;;55.17;21.90;;;;;;;;;;5078066;28;20203;-39
2022/12/10 00:58:20;;;;;;;51.77;21.93;;;;;;;;;;5078168;28;20206;-39
2022/12/10 01:00:48;;;;;;;53.03;22.60;;;;;;;;;;5077993;28;20207;-39
2022/12/10 01:03:16;;;;;;;48.03;20.60;;;;;;;;;;5077727;28;20621;-39
2022/12/10 01:05:44;;;;;;;52.93;21.10;;;;;;;;;;5077870;28;20265;-39
2022/12/10 01:08:12;;;;;;;50.90;20.13;;;;;;;;;;5077430;28;20214;-39
2022/12/10 01:10:40;;;;;;;51.17;20.77;;;;;;;;;;5077957;28;20203;-39
2022/12/10 01:13:06;;;;;;;49.90;20.80;;;;;;;;;;5077521;28;20296;-39
2022/12/10 01:15:38;;;;;;;49.37;20.73;;;;;;;;;;5078516;28;20265;-39
2022/12/10 01:18:05;;;;;;;49.60;20.97;;;;;;;;;;5077307;28;20191;-40
2022/12/10 01:20:35;;;;;;;50.27;21.30;;;;;;;;;;5075185;28;20231;-39
2022/12/10 01:23:02;;;;;;;47.57;20.17;;;;;;;;;;5065596;28;20526;-39
2022/12/10 01:25:31;;;;;;;49.40;19.97;;;;;;;;;;5057704;28;20235;-39
2022/12/10 01:27:59;;;;;;;49.80;21.20;;;;;;;;;;5057516;28;20227;-39
2022/12/10 01:30:26;;;;;;;48.67;20.37;;;;;;;;;;5056456;28;20200;-39
2022/12/10 01:32:53;;;;;;;42.33;20.03;;;;;;;;;;5057397;28;20230;-39
2022/12/10 01:35:20;;;;;;;49.50;19.70;;;;;;;;;;5057081;28;20646;-38
2022/12/10 01:37:47;;;;;;;44.07;19.70;;;;;;;;;;5057102;28;20238;-39
2022/12/10 01:40:14;;;;;;;42.67;19.00;;;;;;;;;;5056604;28;20638;-40
2022/12/10 01:42:41;;;;;;;46.37;19.73;;;;;;;;;;5056552;28;20192;-38
2022/12/10 01:45:11;;;;;;;45.83;20.23;;;;;;;;;;5056347;28;20215;-39
2022/12/10 01:47:39;;;;;;;43.77;18.63;;;;;;;;;;5057236;28;20227;-39
2022/12/10 01:50:07;;;;;;;43.03;19.63;;;;;;;;;;5057312;28;20258;-39
2022/12/10 01:52:37;;;;;;;46.80;19.57;;;;;;;;;;5056257;28;20238;-39
2022/12/10 01:55:27;;;;;;;48.37;19.90;;;;;;;;;;5039382;28;20200;-39
2022/12/10 01:57:54;;;;;;;43.50;18.87;;;;;;;;;;5056118;28;20204;-38
2022/12/10 02:00:21;;;;;;;43.00;19.33;;;;;;;;;;5039589;28;20208;-39
2022/12/10 02:03:08;;;;;;;47.17;20.47;;;;;;;;;;5056660;28;20196;-39
2022/12/10 02:05:52;;;;;;;46.10;19.87;;;;;;;;;;5040300;28;20207;-39
2022/12/10 02:08:25;;;;;;;48.80;21.23;;;;;;;;;;5056261;28;20227;-38
2022/12/10 02:10:58;;;;;;;42.47;19.60;;;;;;;;;;5056807;28;20568;-38
2022/12/10 02:13:30;;;;;;;47.43;22.00;;;;;;;;;;5052423;28;20270;-38
2022/12/10 02:16:06;;;;;;;51.30;21.17;;;;;;;;;;5076240;28;20497;-38
2022/12/10 02:19:05;;;;;;;44.50;18.83;;;;;;;;;;5059554;28;20195;-38
2022/12/10 02:21:36;;;;;;;40.43;19.50;;;;;;;;;;5075393;28;20638;-38
2022/12/10 02:24:11;;;;;;;41.97;19.17;;;;;;;;;;5075506;28;20690;-38
2022/12/10 02:27:03;;;;;;;45.77;20.07;;;;;;;;;;5059938;28;20231;-38
2022/12/10 02:29:31;;;;;;;46.77;20.13;;;;;;;;;;5075519;28;20216;-38
2022/12/10 02:32:11;;;;;;;46.00;19.50;;;;;;;;;;5075497;28;20704;-38
2022/12/10 02:34:46;;;;;;;50.77;20.93;;;;;;;;;;5058961;28;20184;-38
2022/12/10 02:37:21;;;;;;;51.87;20.43;;;;;;;;;;5074839;28;20211;-39
2022/12/10 02:39:56;;;;;;;46.20;21.17;;;;;;;;;;5058666;28;20211;-39
2022/12/10 02:42:28;;;;;;;51.03;22.10;;;;;;;;;;5041794;28;20199;-39
2022/12/10 02:44:56;;;;;;;53.80;22.10;;;;;;;;;;5041118;28;20223;-39
2022/12/10 02:47:25;;;;;;;49.03;21.60;;;;;;;;;;5041524;28;20681;-39
2022/12/10 02:49:54;;;;;;;50.13;24.03;;;;;;;;;;5057626;28;20364;-39
2022/12/10 02:52:23;;;;;;;57.37;25.07;;;;;;;;;;5041393;28;20199;-39
2022/12/10 02:54:52;;;;;;;53.67;24.27;;;;;;;;;;5041658;28;20215;-39
2022/12/10 02:57:57;;;;;;;54.17;23.63;;;;;;;;;;5057699;28;20206;-40
2022/12/10 03:00:24;;;;;;;54.03;24.23;;;;;;;;;;5057946;28;20199;-39
2022/12/10 03:03:13;;;;;;;53.17;22.90;;;;;;;;;;5041793;28;20203;-39
2022/12/10 03:05:50;;;;;;;57.80;24.67;;;;;;;;;;5074387;28;20204;-39
2022/12/10 03:08:32;;;;;;;56.27;24.93;;;;;;;;;;5073939;28;20234;-39
2022/12/10 03:11:02;;;;;;;56.53;24.03;;;;;;;;;;5075361;28;20203;-39
2022/12/10 03:13:34;;;;;;;61.13;23.77;;;;;;;;;;5075762;28;20235;-40
2022/12/10 03:16:02;;;;;;;59.27;25.80;;;;;;;;;;5074682;28;20214;-39
2022/12/10 03:18:31;;;;;;;60.87;26.43;;;;;;;;;;5074366;28;20547;-39
2022/12/10 03:21:02;;;;;;;66.17;27.60;;;;;;;;;;5074456;28;20280;-39
2022/12/10 03:23:30;;;;;;;62.63;26.17;;;;;;;;;;5074928;28;20195;-38
2022/12/10 03:25:58;;;;;;;55.73;24.80;;;;;;;;;;5074550;28;20625;-39
2022/12/10 03:28:26;;;;;;;66.10;27.40;;;;;;;;;;5075013;28;20227;-39
2022/12/10 03:30:55;;;;;;;66.13;26.90;;;;;;;;;;5075299;28;20192;-38
2022/12/10 03:33:22;;;;;;;64.40;26.63;;;;;;;;;;5074452;28;20188;-39
2022/12/10 03:35:49;;;;;;;70.10;28.07;;;;;;;;;;5075380;28;20199;-39
2022/12/10 03:38:17;;;;;;;64.33;27.00;;;;;;;;;;5074342;28;20226;-39
2022/12/10 03:40:44;;;;;;;67.63;26.73;;;;;;;;;;5074466;28;20270;-39
2022/12/10 03:43:14;;;;;;;72.13;28.90;;;;;;;;;;5075017;28;20618;-39
2022/12/10 03:45:41;;;;;;;72.77;28.23;;;;;;;;;;5075069;28;20524;-39
2022/12/10 03:48:08;;;;;;;67.80;28.57;;;;;;;;;;5074676;28;20238;-39
2022/12/10 03:50:35;;;;;;;66.77;27.17;;;;;;;;;;5075316;28;20203;-39
2022/12/10 03:53:03;;;;;;;73.87;28.77;;;;;;;;;;5074729;28;20207;-39
2022/12/10 03:55:29;;;;;;;73.87;28.33;;;;;;;;;;5074809;28;20238;-39
2022/12/10 03:57:57;;;;;;;75.83;30.30;;;;;;;;;;5075150;28;20585;-39
2022/12/10 04:00:23;;;;;;;71.53;26.90;;;;;;;;;;5074960;28;20203;-39
2022/12/10 04:02:51;;;;;;;73.50;29.20;;;;;;;;;;5074612;28;20711;-39
2022/12/10 04:05:17;;;;;;;73.90;28.67;;;;;;;;;;5074631;28;20218;-39
2022/12/10 04:07:44;;;;;;;70.97;28.47;;;;;;;;;;5074854;28;20218;-39
2022/12/10 04:10:12;;;;;;;70.43;28.10;;;;;;;;;;5074659;28;20227;-38
2022/12/10 04:12:39;;;;;;;72.27;27.97;;;;;;;;;;5075227;28;20540;-39
2022/12/10 04:17:53;;;;;;;77.67;27.87;;;;;;;;;;5074924;28;20207;-39
2022/12/10 04:28:36;;;;;;;71.27;25.40;;;;;;;;;;5078567;28;20211;-40
2022/12/10 04:31:03;;;;;;;68.80;26.63;;;;;;;;;;5060491;28;20199;-39
2022/12/10 04:33:30;;;;;;;64.67;25.97;;;;;;;;;;5078673;28;20214;-39
2022/12/10 04:35:57;;;;;;;68.07;26.53;;;;;;;;;;5078416;28;20686;-39
2022/12/10 04:38:24;;;;;;;73.37;28.47;;;;;;;;;;5078419;28;20214;-39
2022/12/10 04:40:51;;;;;;;65.97;27.27;;;;;;;;;;5078697;28;20508;-39
2022/12/10 04:43:18;;;;;;;64.70;26.90;;;;;;;;;;5078452;28;20215;-39
2022/12/10 04:45:45;;;;;;;52.53;24.33;;;;;;;;;;5078363;28;20222;-39
2022/12/10 04:48:13;;;;;;;69.50;28.03;;;;;;;;;;5078146;28;20555;-39
2022/12/10 04:50:39;;;;;;;62.60;25.07;;;;;;;;;;5078113;28;20223;-39
2022/12/10 04:53:07;;;;;;;70.90;26.37;;;;;;;;;;5078350;28;20215;-39
2022/12/10 04:55:34;;;;;;;61.30;23.73;;;;;;;;;;5078103;28;20203;-39
2022/12/10 04:58:01;;;;;;;56.73;22.97;;;;;;;;;;5078181;28;20203;-40
2022/12/10 05:00:28;;;;;;;58.90;25.63;;;;;;;;;;5078083;28;20206;-39
2022/12/10 05:02:55;;;;;;;61.50;24.27;;;;;;;;;;5077199;28;20214;-40
2022/12/10 05:05:22;;;;;;;62.20;26.50;;;;;;;;;;5078522;28;20276;-39
2022/12/10 05:07:49;;;;;;;61.77;26.60;;;;;;;;;;5077520;28;20665;-38
2022/12/10 05:10:17;;;;;;;60.50;24.57;;;;;;;;;;5071695;28;20203;-38
2022/12/10 05:12:44;;;;;;;59.37;24.77;;;;;;;;;;5058934;28;20228;-40
2022/12/10 05:15:11;;;;;;;59.17;26.60;;;;;;;;;;5058142;28;20196;-39
2022/12/10 05:17:38;;;;;;;64.17;26.93;;;;;;;;;;5058622;28;20204;-39
2022/12/10 05:20:05;;;;;;;63.17;23.73;;;;;;;;;;5057447;28;20227;-39
2022/12/10 05:25:19;;;;;;;60.27;23.23;;;;;;;;;;5057580;28;20184;-39
2022/12/10 05:27:46;;;;;;;60.63;25.30;;;;;;;;;;5057750;28;20227;-40
2022/12/10 05:30:13;;;;;;;69.17;28.80;;;;;;;;;;5056517;28;20262;-39
2022/12/10 05:32:40;;;;;;;72.50;26.30;;;;;;;;;;5056695;28;20208;-39
2022/12/10 05:35:07;;;;;;;71.97;30.00;;;;;;;;;;5057192;28;20208;-39
2022/12/10 05:37:35;;;;;;;73.70;27.73;;;;;;;;;;5057400;28;20216;-39
2022/12/10 05:40:02;;;;;;;71.87;28.10;;;;;;;;;;5057065;28;20242;-39
2022/12/10 05:42:29;;;;;;;65.53;26.23;;;;;;;;;;5057319;28;20207;-38
2022/12/10 05:44:56;;;;;;;77.57;28.73;;;;;;;;;;5057101;28;20722;-38
2022/12/10 05:47:24;;;;;;;73.20;28.27;;;;;;;;;;5057128;28;20243;-39
2022/12/10 05:49:51;;;;;;;70.13;27.07;;;;;;;;;;5057189;28;20227;-38
2022/12/10 05:52:19;;;;;;;71.43;28.00;;;;;;;;;;5056963;28;20214;-39
2022/12/10 05:54:45;;;;;;;70.43;25.07;;;;;;;;;;5057477;28;20232;-39
2022/12/10 05:57:13;;;;;;;73.53;26.93;;;;;;;;;;5057031;28;20200;-39
2022/12/10 05:59:39;;;;;;;66.10;26.67;;;;;;;;;;5056729;28;20271;-39
2022/12/10 06:02:07;;;;;;;72.43;27.60;;;;;;;;;;5057001;28;20277;-39
2022/12/10 06:04:34;;;;;;;71.87;26.67;;;;;;;;;;5056968;28;20223;-38
2022/12/10 06:07:01;;;;;;;71.47;26.93;;;;;;;;;;5056791;28;20200;-38
2022/12/10 06:09:36;;;;;;;71.03;25.77;;;;;;;;;;5056751;28;20210;-39
2022/12/10 06:12:04;;;;;;;70.33;25.77;;;;;;;;;;5055093;28;20627;-39
2022/12/10 06:14:31;;;;;;;66.47;25.53;;;;;;;;;;5056551;28;20236;-38
2022/12/10 06:16:58;;;;;;;63.07;26.70;;;;;;;;;;5056373;28;20499;-39
2022/12/10 06:19:24;;;;;;;61.57;26.17;;;;;;;;;;5056158;28;20654;-38
2022/12/10 06:21:52;;;;;;;60.23;23.33;;;;;;;;;;5064342;28;20215;-39
2022/12/10 06:24:19;;;;;;;65.87;24.83;;;;;;;;;;5061729;28;20584;-40
2022/12/10 06:26:47;;;;;;;62.30;27.07;;;;;;;;;;5064727;28;20204;-39
2022/12/10 06:29:19;;;;;;;62.07;25.50;;;;;;;;;;5062424;28;20308;-40
2022/12/10 06:31:46;;;;;;;65.33;25.10;;;;;;;;;;5073793;28;20238;-42
2022/12/10 06:34:13;;;;;;;66.03;24.47;;;;;;;;;;5074569;28;20223;-38
2022/12/10 06:36:41;;;;;;;61.60;23.80;;;;;;;;;;5068811;28;20227;-39
2022/12/10 06:39:07;;;;;;;61.43;24.53;;;;;;;;;;5071500;28;20226;-39
2022/12/10 06:41:35;;;;;;;58.23;24.87;;;;;;;;;;5074828;28;20242;-40
2022/12/10 06:44:02;;;;;;;55.90;23.50;;;;;;;;;;5074281;28;20231;-39
2022/12/10 06:46:29;;;;;;;56.07;22.53;;;;;;;;;;5075032;28;20227;-39
2022/12/10 06:48:56;;;;;;;60.33;23.73;;;;;;;;;;5074901;28;20301;-39
2022/12/10 06:51:24;;;;;;;62.57;23.47;;;;;;;;;;5075119;28;20310;-38
2022/12/10 06:53:51;;;;;;;56.83;24.37;;;;;;;;;;5074518;28;20234;-39
2022/12/10 06:56:19;;;;;;;61.33;24.87;;;;;;;;;;5074920;28;20284;-38
2022/12/10 06:58:47;;;;;;;57.40;23.60;;;;;;;;;;5073189;28;20613;-39
2022/12/10 07:01:17;;;;;;;61.00;24.30;;;;;;;;;;5074800;28;20571;-39
2022/12/10 07:03:44;;;;;;;54.07;21.67;;;;;;;;;;5074534;28;20234;-39
2022/12/10 07:06:12;;;;;;;55.03;23.60;;;;;;;;;;5073706;28;20219;-38
2022/12/10 07:08:39;;;;;;;57.27;25.43;;;;;;;;;;5074442;28;20669;-40
2022/12/10 07:11:08;;;;;;;52.40;22.80;;;;;;;;;;5074473;28;20232;-39
2022/12/10 07:13:36;;;;;;;60.53;23.17;;;;;;;;;;5073675;28;20227;-40
2022/12/10 07:16:12;;;;;;;60.53;22.87;;;;;;;;;;5073958;28;20680;-39
2022/12/10 07:18:39;;;;;;;59.07;24.67;;;;;;;;;;5074323;28;20234;-41
2022/12/10 07:21:26;;;;;;;57.77;23.37;;;;;;;;;;5072382;28;20215;-41
2022/12/10 07:23:57;;;;;;;52.60;22.50;;;;;;;;;;5067785;28;20203;-45
2022/12/10 07:26:25;;;;;;;52.07;22.40;;;;;;;;;;5073115;28;20489;-40
2022/12/10 07:28:52;;;;;;;53.73;23.47;;;;;;;;;;5073057;28;20223;-41
2022/12/10 07:31:21;;;;;;;55.77;24.53;;;;;;;;;;5074142;28;20208;-42
2022/12/10 07:33:49;;;;;;;47.67;22.87;;;;;;;;;;5073464;28;20202;-40
2022/12/10 07:36:17;;;;;;;56.67;24.30;;;;;;;;;;5073823;28;20622;-39
2022/12/10 07:38:44;;;;;;;47.60;21.80;;;;;;;;;;5074544;28;20226;-40
2022/12/10 07:41:12;;;;;;;44.33;20.07;;;;;;;;;;5074301;28;20195;-38
2022/12/10 07:43:41;;;;;;;56.03;22.60;;;;;;;;;;5074927;28;20268;-39
2022/12/10 07:46:21;;;;;;;43.67;20.53;;;;;;;;;;5074852;28;20218;-39
2022/12/10 07:48:49;;;;;;;65.10;27.93;;;;;;;;;;5074872;28;20314;-39
2022/12/10 07:51:18;;;;;;;48.73;21.10;;;;;;;;;;5074412;28;20657;-40
2022/12/10 07:53:45;;;;;;;47.30;22.20;;;;;;;;;;5074105;28;20199;-39
2022/12/10 07:56:12;;;;;;;44.20;22.23;;;;;;;;;;5074910;28;20331;-39
2022/12/10 07:58:43;;;;;;;57.80;25.30;;;;;;;;;;5074878;28;20341;-40
2022/12/10 08:01:16;;;;;;;54.27;24.80;;;;;;;;;;5074792;28;20187;-39
2022/12/10 08:03:43;;;;;;;51.80;24.87;;;;;;;;;;5074689;28;20497;-39
2022/12/10 08:06:13;;;;;;;50.10;25.17;;;;;;;;;;5075056;28;20196;-39
2022/12/10 08:08:41;;;;;;;54.33;25.10;;;;;;;;;;5075091;28;20254;-39
2022/12/10 08:11:09;;;;;;;45.73;21.80;;;;;;;;;;5073779;28;20196;-39
2022/12/10 08:13:37;;;;;;;52.40;22.67;;;;;;;;;;5074546;28;20239;-39
2022/12/10 08:16:16;;;;;;;46.47;23.03;;;;;;;;;;5074482;28;20203;-39
2022/12/10 08:18:44;;;;;;;49.17;21.53;;;;;;;;;;5074785;28;20194;-39
2022/12/10 08:21:14;;;;;;;46.20;21.97;;;;;;;;;;5074731;28;20282;-39
2022/12/10 08:23:44;;;;;;;50.97;23.00;;;;;;;;;;5074623;28;20183;-39
2022/12/10 08:26:23;;;;;;;49.03;22.70;;;;;;;;;;5072777;28;20625;-40
2022/12/10 08:28:50;;;;;;;46.97;22.17;;;;;;;;;;5070458;28;20688;-39
2022/12/10 08:31:19;;;;;;;50.43;22.40;;;;;;;;;;5074108;28;20688;-39
2022/12/10 08:33:46;;;;;;;59.43;24.83;;;;;;;;;;5074076;28;20207;-39
2022/12/10 08:36:14;;;;;;;48.93;22.87;;;;;;;;;;5074294;28;20223;-39
2022/12/10 08:38:42;;;;;;;54.27;24.73;;;;;;;;;;5074564;28;20284;-39
2022/12/10 08:41:10;;;;;;;49.37;22.37;;;;;;;;;;5065297;28;20257;-39
2022/12/10 08:43:38;;;;;;;49.40;22.33;;;;;;;;;;5063887;28;20223;-39
2022/12/10 08:46:06;;;;;;;51.90;25.57;;;;;;;;;;5072624;28;20669;-40
2022/12/10 08:48:34;;;;;;;51.77;23.23;;;;;;;;;;5072999;28;20234;-39
2022/12/10 08:51:02;;;;;;;51.23;23.40;;;;;;;;;;5062278;28;20293;-40
2022/12/10 08:53:31;;;;;;;48.40;23.03;;;;;;;;;;5072793;28;20272;-41
2022/12/10 08:55:58;;;;;;;51.47;23.53;;;;;;;;;;5072670;28;20247;-40
2022/12/10 08:58:25;;;;;;;46.77;22.43;;;;;;;;;;5073010;28;20233;-39
2022/12/10 09:00:52;;;;;;;48.27;22.97;;;;;;;;;;5073177;28;20285;-39
2022/12/10 09:03:20;;;;;;;41.57;22.20;;;;;;;;;;5073517;28;20247;-41
2022/12/10 09:05:47;;;;;;;46.90;23.20;;;;;;;;;;5074559;28;20231;-38
2022/12/10 09:08:14;;;;;;;48.57;23.13;;;;;;;;;;5076258;28;20239;-39
2022/12/10 09:10:42;;;;;;;47.73;22.50;;;;;;;;;;5076892;28;20223;-40
2022/12/10 09:13:09;;;;;;;39.73;20.10;;;;;;;;;;5075986;28;20266;-39
2022/12/10 09:15:36;;;;;;;44.67;24.10;;;;;;;;;;5076785;28;20234;-40
2022/12/10 09:18:04;;;;;;;44.53;21.93;;;;;;;;;;5076488;28;20224;-41
2022/12/10 09:20:31;;;;;;;44.20;21.80;;;;;;;;;;5076698;28;20227;-40
2022/12/10 09:22:58;;;;;;;40.87;21.93;;;;;;;;;;5076115;28;20238;-41
2022/12/10 09:25:25;;;;;;;40.47;21.03;;;;;;;;;;5076132;28;20247;-41
2022/12/10 09:27:52;;;;;;;42.37;21.30;;;;;;;;;;5075769;28;20227;-40
2022/12/10 09:30:19;;;;;;;37.97;19.53;;;;;;;;;;5076164;28;20239;-39
2022/12/10 09:32:46;;;;;;;39.60;20.67;;;;;;;;;;5076247;28;20281;-39
2022/12/10 09:35:13;;;;;;;42.57;20.93;;;;;;;;;;5072227;28;20673;-40
2022/12/10 09:37:41;;;;;;;43.30;21.60;;;;;;;;;;5072395;28;20310;-40
2022/12/10 09:40:13;;;;;;;40.80;21.13;;;;;;;;;;5064850;28;20224;-43
2022/12/10 09:42:58;;;;;;;44.50;22.90;;;;;;;;;;5074391;28;20669;-40
2022/12/10 09:45:45;;;;;;;46.47;22.83;;;;;;;;;;5076636;28;20216;-40
2022/12/10 09:48:15;;;;;;;43.23;21.67;;;;;;;;;;5076072;28;20227;-39
2022/12/10 09:51:00;;;;;;;45.10;21.30;;;;;;;;;;5076310;28;20777;-39
2022/12/10 09:53:28;;;;;;;43.17;21.37;;;;;;;;;;5076288;28;20227;-40
2022/12/10 09:55:55;;;;;;;41.00;20.27;;;;;;;;;;5074788;28;20250;-44
2022/12/10 09:58:25;;;;;;;47.93;21.97;;;;;;;;;;5074790;28;20677;-40
2022/12/10 10:01:02;;;;;;;40.43;20.37;;;;;;;;;;5075472;28;20219;-41
2022/12/10 10:03:38;;;;;;;38.83;19.87;;;;;;;;;;5075115;28;20258;-39
2022/12/10 10:06:05;;;;;;;44.07;21.70;;;;;;;;;;5074090;28;20222;-40
2022/12/10 10:08:44;;;;;;;49.80;23.07;;;;;;;;;;5074637;28;20231;-40
2022/12/10 10:11:20;;;;;;;47.63;22.07;;;;;;;;;;5074254;28;20215;-40
2022/12/10 10:13:59;;;;;;;45.63;20.93;;;;;;;;;;5068355;28;20235;-40
2022/12/10 10:16:40;;;;;;;48.47;21.43;;;;;;;;;;5062828;28;20710;-40
2022/12/10 10:19:14;;;;;;;50.57;22.27;;;;;;;;;;5067376;28;20235;-40
2022/12/10 10:21:48;;;;;;;51.63;23.70;;;;;;;;;;5072173;28;20223;-41
2022/12/10 10:24:21;;;;;;;48.17;22.83;;;;;;;;;;5074979;28;20237;-40
2022/12/10 10:26:49;;;;;;;44.57;21.70;;;;;;;;;;5074620;28;20231;-40
2022/12/10 10:29:18;;;;;;;52.00;22.70;;;;;;;;;;5073717;28;20235;-40
2022/12/10 10:31:45;;;;;;;45.47;22.10;;;;;;;;;;5074257;28;20247;-40
2022/12/10 10:34:15;;;;;;;47.83;22.63;;;;;;;;;;5073676;28;20243;-41
2022/12/10 10:36:42;;;;;;;41.63;20.63;;;;;;;;;;5075582;28;20231;-40
2022/12/10 10:39:21;;;;;;;38.33;20.80;;;;;;;;;;5072409;28;20689;-39
2022/12/10 10:41:52;;;;;;;38.50;19.57;;;;;;;;;;5073250;28;20215;-40
2022/12/10 10:44:34;;;;;;;42.07;21.83;;;;;;;;;;5074126;28;20230;-42
2022/12/10 10:47:01;;;;;;;43.13;20.77;;;;;;;;;;5074381;28;20250;-43
2022/12/10 10:49:34;;;;;;;48.53;24.13;;;;;;;;;;5075044;28;20230;-39
2022/12/10 10:52:06;;;;;;;46.30;21.13;;;;;;;;;;5074223;28;20226;-42
2022/12/10 10:54:36;;;;;;;50.80;22.63;;;;;;;;;;5074410;28;20707;-40
2022/12/10 10:57:25;;;;;;;39.60;21.23;;;;;;;;;;5071012;28;20219;-40
2022/12/10 10:59:55;;;;;;;41.23;22.20;;;;;;;;;;5067779;28;20230;-42
2022/12/10 11:02:40;;;;;;;42.63;21.03;;;;;;;;;;5074920;28;20246;-40
2022/12/10 11:05:15;;;;;;;39.43;20.50;;;;;;;;;;5074563;28;20225;-39
2022/12/10 11:07:42;;;;;;;41.70;21.17;;;;;;;;;;5059748;28;20212;-40
2022/12/10 11:10:16;;;;;;;43.10;21.67;;;;;;;;;;5052810;28;20678;-39
2022/12/10 11:12:56;;;;;;;45.27;22.33;;;;;;;;;;5072945;28;20243;-40
2022/12/10 11:15:24;;;;;;;43.80;21.07;;;;;;;;;;5069138;28;20231;-40
2022/12/10 11:17:53;;;;;;;44.17;21.17;;;;;;;;;;5073565;28;20269;-39
2022/12/10 11:20:32;;;;;;;47.77;22.73;;;;;;;;;;5073663;28;20253;-42
2022/12/10 11:23:12;;;;;;;44.70;23.27;;;;;;;;;;5074464;28;20288;-39
2022/12/10 11:26:08;;;;;;;45.70;22.53;;;;;;;;;;5074037;28;20218;-39
2022/12/10 11:29:16;;;;;;;49.03;22.80;;;;;;;;;;5053559;28;20238;-39
2022/12/10 11:32:01;;;;;;;50.00;23.53;;;;;;;;;;5053755;28;20223;-39
2022/12/10 11:34:37;;;;;;;43.40;20.63;;;;;;;;;;5074718;28;20223;-40
2022/12/10 11:37:33;;;;;;;45.93;21.40;;;;;;;;;;5070703;28;20231;-40
2022/12/10 11:40:13;;;;;;;42.53;19.80;;;;;;;;;;5072140;28;20231;-41
2022/12/10 11:43:02;;;;;;;42.83;21.13;;;;;;;;;;5072586;28;20239;-40
2022/12/10 11:45:57;;;;;;;48.83;21.30;;;;;;;;;;5073152;28;20266;-40
2022/12/10 11:49:09;;;;;;;41.73;20.63;;;;;;;;;;5073210;28;20546;-40
2022/12/10 11:51:40;;;;;;;46.67;21.53;;;;;;;;;;5071507;28;20249;-39
2022/12/10 11:54:29;;;;;;;45.70;22.43;;;;;;;;;;5072527;28;20223;-39
2022/12/10 11:57:10;;;;;;;46.23;19.53;;;;;;;;;;5063983;28;20234;-39
2022/12/10 12:00:00;;;;;;;43.50;20.60;;;;;;;;;;5073535;28;20241;-38
2022/12/10 12:02:47;;;;;;;41.70;19.10;;;;;;;;;;5073146;28;20231;-39
2022/12/10 12:05:40;;;;;;;47.47;18.70;;;;;;;;;;5073615;28;20669;-39
2022/12/10 12:08:34;;;;;;;41.73;19.57;;;;;;;;;;5072989;28;20230;-40
2022/12/10 12:11:05;;;;;;;44.20;18.90;;;;;;;;;;5062593;28;20226;-40
2022/12/10 12:14:17;;;;;;;43.80;18.93;;;;;;;;;;5073127;28;20292;-41
2022/12/10 12:17:27;;;;;;;45.77;21.07;;;;;;;;;;5071258;28;20223;-40
2022/12/10 12:20:04;;;;;;;45.57;19.80;;;;;;;;;;5072539;28;20265;-41
2022/12/10 12:22:37;;;;;;;43.87;20.47;;;;;;;;;;5073245;28;20219;-40
2022/12/10 12:25:28;;;;;;;42.30;20.90;;;;;;;;;;5072683;28;20265;-40
2022/12/10 12:28:02;;;;;;;47.70;21.30;;;;;;;;;;5072132;28;20246;-41
2022/12/10 12:30:32;;;;;;;42.00;20.60;;;;;;;;;;5073395;28;20250;-40
2022/12/10 12:33:09;;;;;;;48.70;20.37;;;;;;;;;;5072336;28;20243;-42
2022/12/10 12:35:43;;;;;;;43.73;19.83;;;;;;;;;;5073171;28;20241;-40
2022/12/10 12:38:31;;;;;;;55.93;21.80;;;;;;;;;;5073034;28;20223;-40
2022/12/10 12:41:01;;;;;;;42.50;20.03;;;;;;;;;;5075843;28;20260;-40
2022/12/10 12:43:39;;;;;;;44.20;18.83;;;;;;;;;;5077138;28;20654;-40
2022/12/10 12:46:14;;;;;;;52.17;21.73;;;;;;;;;;5075798;28;20223;-40
2022/12/10 12:48:53;;;;;;;43.10;19.63;;;;;;;;;;5076582;28;20226;-41
2022/12/10 12:51:29;;;;;;;45.97;20.30;;;;;;;;;;5075556;28;20331;-40
2022/12/10 12:53:56;;;;;;;48.17;20.57;;;;;;;;;;5075696;28;20673;-40
2022/12/10 12:56:23;;;;;;;51.67;21.40;;;;;;;;;;5066741;28;20302;-41
2022/12/10 12:59:22;;;;;;;44.60;20.90;;;;;;;;;;5076929;28;20227;-39
2022/12/10 13:02:24;;;;;;;49.87;22.20;;;;;;;;;;5075645;28;20219;-41
2022/12/10 13:04:52;;;;;;;45.07;21.13;;;;;;;;;;5076022;28;20219;-47
2022/12/10 13:07:19;;;;;;;42.13;19.67;;;;;;;;;;5075487;28;20257;-41
2022/12/10 13:09:51;;;;;;;43.70;20.20;;;;;;;;;;5076581;28;20297;-42
2022/12/10 13:12:29;;;;;;;48.87;20.00;;;;;;;;;;5071874;28;20223;-41
2022/12/10 13:15:00;;;;;;;52.50;21.87;;;;;;;;;;5065053;28;20242;-43
2022/12/10 13:17:37;;;;;;;49.27;20.90;;;;;;;;;;5077003;28;20225;-40
2022/12/10 13:20:26;;;;;;;46.70;19.73;;;;;;;;;;5075900;28;20231;-42
2022/12/10 13:23:05;;;;;;;47.03;19.53;;;;;;;;;;5075986;28;20243;-40
2022/12/10 13:25:53;;;;;;;51.00;20.83;;;;;;;;;;5074801;28;20280;-44
2022/12/10 13:28:26;;;;;;;49.60;20.67;;;;;;;;;;5076243;28;20231;-41
2022/12/10 13:31:05;;;;;;;50.30;21.13;;;;;;;;;;5076075;28;20246;-43
2022/12/10 13:33:50;;;;;;;55.63;23.13;;;;;;;;;;5076442;28;20298;-41
2022/12/10 13:36:32;;;;;;;51.17;22.07;;;;;;;;;;5076023;28;20230;-42
2022/12/10 13:39:02;;;;;;;56.60;23.17;;;;;;;;;;5076079;28;20219;-41
2022/12/10 13:45:00;;;;;;;55.27;23.07;;;;;;;;;;5065062;28;20254;-41
2022/12/10 13:47:42;;;;;;;56.47;24.30;;;;;;;;;;5076531;28;20280;-41
2022/12/10 13:50:29;;;;;;;60.87;25.07;;;;;;;;;;5075622;28;20239;-40
2022/12/10 13:53:14;;;;;;;57.20;23.13;;;;;;;;;;5074842;28;20215;-43
2022/12/10 13:55:59;;;;;;;64.63;25.27;;;;;;;;;;5075676;28;20673;-42
2022/12/10 13:58:31;;;;;;;59.37;24.07;;;;;;;;;;5066673;28;20688;-42
2022/12/10 14:01:42;;;;;;;64.73;25.47;;;;;;;;;;5073479;28;20562;-42
2022/12/10 14:04:21;;;;;;;61.03;24.93;;;;;;;;;;5055132;28;20730;-43
2022/12/10 14:06:48;;;;;;;53.03;23.63;;;;;;;;;;5075303;28;20230;-42
2022/12/10 14:09:20;;;;;;;53.57;21.07;;;;;;;;;;5073659;28;20223;-41
2022/12/10 14:11:51;;;;;;;52.33;22.93;;;;;;;;;;5075125;28;20233;-42
2022/12/10 14:14:39;;;;;;;53.83;21.67;;;;;;;;;;5075781;28;20235;-42
2022/12/10 14:17:21;;;;;;;50.97;22.40;;;;;;;;;;5075487;28;20262;-43
2022/12/10 14:19:49;;;;;;;55.93;20.87;;;;;;;;;;5055051;28;20566;-43
2022/12/10 14:22:39;;;;;;;58.03;23.37;;;;;;;;;;5038040;28;20231;-44
2022/12/10 14:25:13;;;;;;;56.30;23.90;;;;;;;;;;5075300;28;20602;-42
2022/12/10 14:27:40;;;;;;;61.30;26.20;;;;;;;;;;5075257;28;20223;-44
2022/12/10 14:30:18;;;;;;;57.10;22.53;;;;;;;;;;5075134;28;20241;-41
2022/12/10 14:32:46;;;;;;;53.17;21.23;;;;;;;;;;5075415;28;20238;-41
2022/12/10 14:35:19;;;;;;;65.47;26.60;;;;;;;;;;5068060;28;20223;-41
2022/12/10 14:37:52;;;;;;;54.87;23.87;;;;;;;;;;5060192;28;20516;-41
2022/12/10 14:40:25;;;;;;;54.97;22.40;;;;;;;;;;5075165;28;21244;-42
2022/12/10 14:42:57;;;;;;;61.23;24.00;;;;;;;;;;5074478;28;20290;-41
2022/12/10 14:45:26;;;;;;;59.07;23.10;;;;;;;;;;5075457;28;20216;-42
2022/12/10 14:47:53;;;;;;;57.33;24.77;;;;;;;;;;5074334;28;20219;-40
2022/12/10 14:50:21;;;;;;;63.20;25.40;;;;;;;;;;5075364;28;20231;-41
2022/12/10 14:52:51;;;;;;;65.57;25.27;;;;;;;;;;5075092;28;20227;-40
2022/12/10 14:55:22;;;;;;;63.10;25.60;;;;;;;;;;5075304;28;20231;-39
2022/12/10 14:57:52;;;;;;;61.53;22.47;;;;;;;;;;5074860;28;20234;-39
2022/12/10 15:00:22;;;;;;;61.37;23.80;;;;;;;;;;5074875;28;20228;-39
2022/12/10 15:02:55;;;;;;;60.10;24.77;;;;;;;;;;5073540;28;20261;-40